sensor_id;sensor_type;location;lat;lon;timestamp;temperature;humidity
6118;DHT22;3089;48.202;11.510;2023-04-06T00:02:18;2.50;99.90
6118;DHT22;3089;48.202;11.510;2023-04-06T00:04:46;2.50;99.90
6118;DHT22;3089;48.202;11.510;2023-04-06T00:07:14;2.40;99.90
6118;DHT22;3089;48.202;11.510;2023-04-06T00:09:42;2.40;99.90
6118;DHT22;3089;48.202;11.510;2023-04-06T00:12:11;2.50;99.90
6118;DHT22;3089;48.202;11.510;2023-04-06T00:14:39;2.50;99.90
6118;DHT22;3089;48.202;11.510;2023-04-06T00:17:07;2.40;99.90
6118;DHT22;3089;48.202;11.510;2023-04-06T00:19:35;2.30;99.90
6118;DHT22;3089;48.202;11.510;2023-04-06T00:22:03;2.20;99.90
6118;DHT22;3089;48.202;11.510;2023-04-06T00:24:31;2.60;99.90
6118;DHT22;3089;48.202;11.510;2023-04-06T00:26:59;2.20;99.90
6118;DHT22;3089;48.202;11.510;2023-04-06T00:29:29;2.20;99.90
6118;DHT22;3089;48.202;11.510;2023-04-06T00:31:56;2.20;99.90
6118;DHT22;3089;48.202;11.510;2023-04-06T00:34:24;2.10;99.90
6118;DHT22;3089;48.202;11.510;2023-04-06T00:36:52;2.20;99.90
6118;DHT22;3089;48.202;11.510;2023-04-06T00:39:20;2.20;99.90
6118;DHT22;3089;48.202;11.510;2023-04-06T00:41:50;2.20;99.90
6118;DHT22;3089;48.202;11.510;2023-04-06T00:44:19;2.20;99.90
6118;DHT22;3089;48.202;11.510;2023-04-06T00:46:48;2.20;99.90
6118;DHT22;3089;48.202;11.510;2023-04-06T00:49:16;2.10;99.90
6118;DHT22;3089;48.202;11.510;2023-04-06T00:51:44;2.20;99.90
6118;DHT22;3089;48.202;11.510;2023-04-06T00:54:12;2.10;99.90
6118;DHT22;3089;48.202;11.510;2023-04-06T00:56:41;2.10;99.90
6118;DHT22;3089;48.202;11.510;2023-04-06T00:59:10;2.00;99.90
6118;DHT22;3089;48.202;11.510;2023-04-06T01:01:39;2.00;99.90
6118;DHT22;3089;48.202;11.510;2023-04-06T01:04:08;2.00;99.90
6118;DHT22;3089;48.202;11.510;2023-04-06T01:06:36;2.00;99.90
6118;DHT22;3089;48.202;11.510;2023-04-06T01:09:04;2.00;99.90
6118;DHT22;3089;48.202;11.510;2023-04-06T01:11:32;2.00;99.90
6118;DHT22;3089;48.202;11.510;2023-04-06T01:14:00;2.00;99.90
6118;DHT22;3089;48.202;11.510;2023-04-06T01:16:28;1.90;99.90
6118;DHT22;3089;48.202;11.510;2023-04-06T01:18:56;1.90;99.90
6118;DHT22;3089;48.202;11.510;2023-04-06T01:21:25;1.90;99.90
6118;DHT22;3089;48.202;11.510;2023-04-06T01:23:55;1.80;99.90
6118;DHT22;3089;48.202;11.510;2023-04-06T01:26:22;1.80;99.90
6118;DHT22;3089;48.202;11.510;2023-04-06T01:28:50;1.80;99.90
6118;DHT22;3089;48.202;11.510;2023-04-06T01:31:18;1.80;99.90
6118;DHT22;3089;48.202;11.510;2023-04-06T01:33:46;1.80;99.90
6118;DHT22;3089;48.202;11.510;2023-04-06T01:36:14;1.70;99.90
6118;DHT22;3089;48.202;11.510;2023-04-06T01:38:42;1.70;99.90
6118;DHT22;3089;48.202;11.510;2023-04-06T01:41:12;1.70;99.90
6118;DHT22;3089;48.202;11.510;2023-04-06T01:43:40;1.70;99.90
6118;DHT22;3089;48.202;11.510;2023-04-06T01:46:08;1.70;99.90
6118;DHT22;3089;48.202;11.510;2023-04-06T01:48:36;1.70;99.90
6118;DHT22;3089;48.202;11.510;2023-04-06T01:51:04;1.60;99.90
6118;DHT22;3089;48.202;11.510;2023-04-06T01:53:32;1.60;99.90
6118;DHT22;3089;48.202;11.510;2023-04-06T01:56:00;1.60;99.90
6118;DHT22;3089;48.202;11.510;2023-04-06T01:58:29;1.60;99.90
6118;DHT22;3089;48.202;11.510;2023-04-06T02:00:57;1.60;99.90
6118;DHT22;3089;48.202;11.510;2023-04-06T02:03:25;1.50;99.90
6118;DHT22;3089;48.202;11.510;2023-04-06T02:05:53;1.50;99.90
6118;DHT22;3089;48.202;11.510;2023-04-06T02:08:21;1.50;99.90
6118;DHT22;3089;48.202;11.510;2023-04-06T02:10:49;1.50;99.90
6118;DHT22;3089;48.202;11.510;2023-04-06T02:13:17;1.50;99.90
6118;DHT22;3089;48.202;11.510;2023-04-06T02:15:46;1.50;99.90
6118;DHT22;3089;48.202;11.510;2023-04-06T02:18:14;1.50;99.90
6118;DHT22;3089;48.202;11.510;2023-04-06T02:20:44;1.50;99.90
6118;DHT22;3089;48.202;11.510;2023-04-06T02:23:12;1.50;99.90
6118;DHT22;3089;48.202;11.510;2023-04-06T02:25:40;1.40;99.90
6118;DHT22;3089;48.202;11.510;2023-04-06T02:28:08;1.50;99.90
6118;DHT22;3089;48.202;11.510;2023-04-06T02:30:36;1.40;99.90
6118;DHT22;3089;48.202;11.510;2023-04-06T02:33:05;1.30;99.90
6118;DHT22;3089;48.202;11.510;2023-04-06T02:35:33;1.30;99.90
6118;DHT22;3089;48.202;11.510;2023-04-06T02:38:01;1.40;99.90
6118;DHT22;3089;48.202;11.510;2023-04-06T02:40:29;1.30;99.90
6118;DHT22;3089;48.202;11.510;2023-04-06T02:42:57;1.30;99.90
6118;DHT22;3089;48.202;11.510;2023-04-06T02:45:25;1.30;99.90
6118;DHT22;3089;48.202;11.510;2023-04-06T02:47:53;1.40;99.90
6118;DHT22;3089;48.202;11.510;2023-04-06T02:50:22;1.70;99.90
6118;DHT22;3089;48.202;11.510;2023-04-06T02:52:50;1.30;99.90
6118;DHT22;3089;48.202;11.510;2023-04-06T02:55:18;1.30;99.90
6118;DHT22;3089;48.202;11.510;2023-04-06T02:57:48;1.30;99.90
6118;DHT22;3089;48.202;11.510;2023-04-06T03:00:16;1.30;99.90
6118;DHT22;3089;48.202;11.510;2023-04-06T03:02:44;1.20;99.90
6118;DHT22;3089;48.202;11.510;2023-04-06T03:05:12;1.20;99.90
6118;DHT22;3089;48.202;11.510;2023-04-06T03:07:41;1.20;99.90
6118;DHT22;3089;48.202;11.510;2023-04-06T03:10:09;1.20;99.90
6118;DHT22;3089;48.202;11.510;2023-04-06T03:12:37;1.20;99.90
6118;DHT22;3089;48.202;11.510;2023-04-06T03:15:06;1.30;99.90
6118;DHT22;3089;48.202;11.510;2023-04-06T03:17:34;1.20;99.90
6118;DHT22;3089;48.202;11.510;2023-04-06T03:20:02;1.20;99.90
6118;DHT22;3089;48.202;11.510;2023-04-06T03:22:30;1.10;99.90
6118;DHT22;3089;48.202;11.510;2023-04-06T03:24:59;1.10;99.90
6118;DHT22;3089;48.202;11.510;2023-04-06T03:27:29;1.10;99.90
6118;DHT22;3089;48.202;11.510;2023-04-06T03:29:57;1.00;99.90
6118;DHT22;3089;48.202;11.510;2023-04-06T03:32:25;1.10;99.90
6118;DHT22;3089;48.202;11.510;2023-04-06T03:34:53;1.10;99.90
6118;DHT22;3089;48.202;11.510;2023-04-06T03:37:21;1.10;99.90
6118;DHT22;3089;48.202;11.510;2023-04-06T03:39:49;1.00;99.90
6118;DHT22;3089;48.202;11.510;2023-04-06T03:42:18;1.10;99.90
6118;DHT22;3089;48.202;11.510;2023-04-06T03:44:46;1.00;99.90
6118;DHT22;3089;48.202;11.510;2023-04-06T03:47:14;1.10;99.90
6118;DHT22;3089;48.202;11.510;2023-04-06T03:49:42;1.10;99.90
6118;DHT22;3089;48.202;11.510;2023-04-06T03:52:10;1.10;99.90
6118;DHT22;3089;48.202;11.510;2023-04-06T03:54:38;1.20;99.90
6118;DHT22;3089;48.202;11.510;2023-04-06T03:57:05;1.10;99.90
6118;DHT22;3089;48.202;11.510;2023-04-06T03:59:35;1.10;99.90
6118;DHT22;3089;48.202;11.510;2023-04-06T04:02:03;1.00;99.90
6118;DHT22;3089;48.202;11.510;2023-04-06T04:04:31;1.00;99.90
6118;DHT22;3089;48.202;11.510;2023-04-06T04:06:59;1.00;99.90
6118;DHT22;3089;48.202;11.510;2023-04-06T04:09:27;1.00;99.90
6118;DHT22;3089;48.202;11.510;2023-04-06T04:11:55;1.00;99.90
6118;DHT22;3089;48.202;11.510;2023-04-06T04:14:23;0.90;99.90
6118;DHT22;3089;48.202;11.510;2023-04-06T04:16:53;0.90;99.90
6118;DHT22;3089;48.202;11.510;2023-04-06T04:19:21;0.90;99.90
6118;DHT22;3089;48.202;11.510;2023-04-06T04:21:49;0.80;99.90
6118;DHT22;3089;48.202;11.510;2023-04-06T04:24:17;0.90;99.90
6118;DHT22;3089;48.202;11.510;2023-04-06T04:26:45;0.90;99.90
6118;DHT22;3089;48.202;11.510;2023-04-06T04:29:12;0.90;99.90
6118;DHT22;3089;48.202;11.510;2023-04-06T04:31:41;0.90;99.90
6118;DHT22;3089;48.202;11.510;2023-04-06T04:34:10;0.90;99.90
6118;DHT22;3089;48.202;11.510;2023-04-06T04:36:38;0.90;99.90
6118;DHT22;3089;48.202;11.510;2023-04-06T04:39:08;0.80;99.90
6118;DHT22;3089;48.202;11.510;2023-04-06T04:41:36;0.90;99.90
6118;DHT22;3089;48.202;11.510;2023-04-06T04:44:04;0.80;99.90
6118;DHT22;3089;48.202;11.510;2023-04-06T04:46:32;0.80;99.90
6118;DHT22;3089;48.202;11.510;2023-04-06T04:48:59;0.80;99.90
6118;DHT22;3089;48.202;11.510;2023-04-06T04:51:29;0.80;99.90
6118;DHT22;3089;48.202;11.510;2023-04-06T04:53:57;0.80;99.90
6118;DHT22;3089;48.202;11.510;2023-04-06T04:56:26;0.80;99.90
6118;DHT22;3089;48.202;11.510;2023-04-06T04:58:56;0.80;99.90
6118;DHT22;3089;48.202;11.510;2023-04-06T05:01:24;0.80;99.90
6118;DHT22;3089;48.202;11.510;2023-04-06T05:03:52;0.80;99.90
6118;DHT22;3089;48.202;11.510;2023-04-06T05:06:20;0.80;99.90
6118;DHT22;3089;48.202;11.510;2023-04-06T05:08:49;0.80;99.90
6118;DHT22;3089;48.202;11.510;2023-04-06T05:11:17;0.80;99.90
6118;DHT22;3089;48.202;11.510;2023-04-06T05:13:45;0.90;99.90
6118;DHT22;3089;48.202;11.510;2023-04-06T05:16:13;1.00;99.90
6118;DHT22;3089;48.202;11.510;2023-04-06T05:18:41;0.90;99.90
6118;DHT22;3089;48.202;11.510;2023-04-06T05:21:10;1.00;99.90
6118;DHT22;3089;48.202;11.510;2023-04-06T05:23:38;1.10;99.90
6118;DHT22;3089;48.202;11.510;2023-04-06T05:26:07;2.00;99.90
6118;DHT22;3089;48.202;11.510;2023-04-06T05:28:35;1.60;99.90
6118;DHT22;3089;48.202;11.510;2023-04-06T05:31:03;1.70;99.90
6118;DHT22;3089;48.202;11.510;2023-04-06T05:33:33;2.10;99.90
6118;DHT22;3089;48.202;11.510;2023-04-06T05:36:01;2.90;99.90
6118;DHT22;3089;48.202;11.510;2023-04-06T05:38:30;3.50;99.90
6118;DHT22;3089;48.202;11.510;2023-04-06T05:40:59;3.70;99.90
6118;DHT22;3089;48.202;11.510;2023-04-06T05:43:29;3.90;99.90
6118;DHT22;3089;48.202;11.510;2023-04-06T05:45:57;4.10;99.90
6118;DHT22;3089;48.202;11.510;2023-04-06T05:48:24;4.30;99.90
6118;DHT22;3089;48.202;11.510;2023-04-06T05:50:52;4.50;99.90
6118;DHT22;3089;48.202;11.510;2023-04-06T05:53:20;4.60;99.90
6118;DHT22;3089;48.202;11.510;2023-04-06T05:55:48;4.70;99.90
6118;DHT22;3089;48.202;11.510;2023-04-06T05:58:16;4.80;99.90
6118;DHT22;3089;48.202;11.510;2023-04-06T06:00:46;4.90;99.90
6118;DHT22;3089;48.202;11.510;2023-04-06T06:03:14;5.00;99.90
6118;DHT22;3089;48.202;11.510;2023-04-06T06:05:42;5.00;99.90
6118;DHT22;3089;48.202;11.510;2023-04-06T06:08:10;5.10;99.90
6118;DHT22;3089;48.202;11.510;2023-04-06T06:10:38;5.50;99.90
6118;DHT22;3089;48.202;11.510;2023-04-06T06:13:07;4.60;99.90
6118;DHT22;3089;48.202;11.510;2023-04-06T06:15:35;4.60;99.90
6118;DHT22;3089;48.202;11.510;2023-04-06T06:18:04;4.60;99.90
6118;DHT22;3089;48.202;11.510;2023-04-06T06:20:32;4.80;99.90
6118;DHT22;3089;48.202;11.510;2023-04-06T06:23:00;5.50;99.90
6118;DHT22;3089;48.202;11.510;2023-04-06T06:25:28;6.30;99.90
6118;DHT22;3089;48.202;11.510;2023-04-06T06:27:57;6.50;99.90
6118;DHT22;3089;48.202;11.510;2023-04-06T06:30:25;7.30;99.90
6118;DHT22;3089;48.202;11.510;2023-04-06T06:32:53;8.00;99.90
6118;DHT22;3089;48.202;11.510;2023-04-06T06:35:22;8.60;99.90
6118;DHT22;3089;48.202;11.510;2023-04-06T06:37:50;9.00;99.90
6118;DHT22;3089;48.202;11.510;2023-04-06T06:40:18;9.00;99.90
6118;DHT22;3089;48.202;11.510;2023-04-06T06:42:50;9.60;99.90
6118;DHT22;3089;48.202;11.510;2023-04-06T06:45:18;9.60;99.90
6118;DHT22;3089;48.202;11.510;2023-04-06T06:47:46;9.00;99.90
6118;DHT22;3089;48.202;11.510;2023-04-06T06:50:15;9.70;99.90
6118;DHT22;3089;48.202;11.510;2023-04-06T06:52:44;9.50;99.90
6118;DHT22;3089;48.202;11.510;2023-04-06T06:55:12;9.80;99.90
6118;DHT22;3089;48.202;11.510;2023-04-06T06:57:40;9.20;99.90
6118;DHT22;3089;48.202;11.510;2023-04-06T07:00:09;10.00;99.90
6118;DHT22;3089;48.202;11.510;2023-04-06T07:02:40;10.30;99.90
6118;DHT22;3089;48.202;11.510;2023-04-06T07:05:08;10.20;99.90
6118;DHT22;3089;48.202;11.510;2023-04-06T07:07:55;10.40;99.90
6118;DHT22;3089;48.202;11.510;2023-04-06T07:10:23;10.10;99.90
6118;DHT22;3089;48.202;11.510;2023-04-06T07:12:51;9.80;99.90
6118;DHT22;3089;48.202;11.510;2023-04-06T07:15:19;8.10;99.90
6118;DHT22;3089;48.202;11.510;2023-04-06T07:17:47;7.60;99.90
6118;DHT22;3089;48.202;11.510;2023-04-06T07:20:15;8.40;99.90
6118;DHT22;3089;48.202;11.510;2023-04-06T07:22:43;7.50;99.90
6118;DHT22;3089;48.202;11.510;2023-04-06T07:25:13;7.20;99.90
6118;DHT22;3089;48.202;11.510;2023-04-06T07:27:41;6.60;99.90
6118;DHT22;3089;48.202;11.510;2023-04-06T07:30:09;6.60;99.90
6118;DHT22;3089;48.202;11.510;2023-04-06T07:32:37;6.20;99.90
6118;DHT22;3089;48.202;11.510;2023-04-06T07:35:06;6.30;99.90
6118;DHT22;3089;48.202;11.510;2023-04-06T07:37:34;6.50;99.90
6118;DHT22;3089;48.202;11.510;2023-04-06T07:40:02;7.00;99.90
6118;DHT22;3089;48.202;11.510;2023-04-06T07:42:31;6.20;99.90
6118;DHT22;3089;48.202;11.510;2023-04-06T07:44:59;7.40;99.90
6118;DHT22;3089;48.202;11.510;2023-04-06T07:47:27;8.20;99.90
6118;DHT22;3089;48.202;11.510;2023-04-06T07:49:55;7.90;99.90
6118;DHT22;3089;48.202;11.510;2023-04-06T07:52:23;7.80;99.90
6118;DHT22;3089;48.202;11.510;2023-04-06T07:54:51;7.60;99.90
6118;DHT22;3089;48.202;11.510;2023-04-06T07:57:19;7.20;99.90
6118;DHT22;3089;48.202;11.510;2023-04-06T07:59:48;8.20;99.90
6118;DHT22;3089;48.202;11.510;2023-04-06T08:02:16;8.00;99.90
6118;DHT22;3089;48.202;11.510;2023-04-06T08:04:44;8.60;99.90
6118;DHT22;3089;48.202;11.510;2023-04-06T08:07:12;7.70;99.90
6118;DHT22;3089;48.202;11.510;2023-04-06T08:09:40;7.50;99.90
6118;DHT22;3089;48.202;11.510;2023-04-06T08:12:08;7.60;99.90
6118;DHT22;3089;48.202;11.510;2023-04-06T08:14:36;7.50;99.90
6118;DHT22;3089;48.202;11.510;2023-04-06T08:17:05;7.20;99.90
6118;DHT22;3089;48.202;11.510;2023-04-06T08:19:33;7.20;99.90
6118;DHT22;3089;48.202;11.510;2023-04-06T08:22:01;7.30;99.90
6118;DHT22;3089;48.202;11.510;2023-04-06T08:24:29;7.60;99.90
6118;DHT22;3089;48.202;11.510;2023-04-06T08:26:58;7.70;99.90
6118;DHT22;3089;48.202;11.510;2023-04-06T08:29:26;7.20;99.90
6118;DHT22;3089;48.202;11.510;2023-04-06T08:31:54;7.60;99.90
6118;DHT22;3089;48.202;11.510;2023-04-06T08:34:24;7.60;99.90
6118;DHT22;3089;48.202;11.510;2023-04-06T08:36:52;7.80;99.90
6118;DHT22;3089;48.202;11.510;2023-04-06T08:39:20;8.20;99.90
6118;DHT22;3089;48.202;11.510;2023-04-06T08:41:51;8.70;99.90
6118;DHT22;3089;48.202;11.510;2023-04-06T08:44:23;9.00;99.90
6118;DHT22;3089;48.202;11.510;2023-04-06T08:46:51;9.30;99.90
6118;DHT22;3089;48.202;11.510;2023-04-06T08:49:20;9.70;99.90
6118;DHT22;3089;48.202;11.510;2023-04-06T08:51:50;10.30;99.90
6118;DHT22;3089;48.202;11.510;2023-04-06T08:54:18;10.50;99.90
6118;DHT22;3089;48.202;11.510;2023-04-06T08:56:47;10.50;99.90
6118;DHT22;3089;48.202;11.510;2023-04-06T08:59:16;9.50;99.90
6118;DHT22;3089;48.202;11.510;2023-04-06T09:01:45;9.50;99.90
6118;DHT22;3089;48.202;11.510;2023-04-06T09:04:13;11.00;99.90
6118;DHT22;3089;48.202;11.510;2023-04-06T09:06:42;10.80;99.90
6118;DHT22;3089;48.202;11.510;2023-04-06T09:09:12;9.80;99.90
6118;DHT22;3089;48.202;11.510;2023-04-06T09:11:47;9.80;99.90
6118;DHT22;3089;48.202;11.510;2023-04-06T09:14:15;9.10;99.90
6118;DHT22;3089;48.202;11.510;2023-04-06T09:16:45;9.70;99.90
6118;DHT22;3089;48.202;11.510;2023-04-06T09:19:14;9.40;99.90
6118;DHT22;3089;48.202;11.510;2023-04-06T09:21:41;9.20;99.90
6118;DHT22;3089;48.202;11.510;2023-04-06T09:24:09;9.70;99.90
6118;DHT22;3089;48.202;11.510;2023-04-06T09:26:47;9.60;99.90
6118;DHT22;3089;48.202;11.510;2023-04-06T09:29:25;8.90;99.90
6118;DHT22;3089;48.202;11.510;2023-04-06T09:32:02;9.40;99.90
6118;DHT22;3089;48.202;11.510;2023-04-06T09:34:30;9.00;99.90
6118;DHT22;3089;48.202;11.510;2023-04-06T09:36:58;9.20;99.90
6118;DHT22;3089;48.202;11.510;2023-04-06T09:39:26;9.00;99.90
6118;DHT22;3089;48.202;11.510;2023-04-06T09:41:56;9.20;99.90
6118;DHT22;3089;48.202;11.510;2023-04-06T09:44:24;8.90;99.90
6118;DHT22;3089;48.202;11.510;2023-04-06T09:46:53;8.90;99.90
6118;DHT22;3089;48.202;11.510;2023-04-06T09:49:28;9.00;99.90
6118;DHT22;3089;48.202;11.510;2023-04-06T09:51:59;9.30;99.90
6118;DHT22;3089;48.202;11.510;2023-04-06T09:54:29;9.90;99.90
6118;DHT22;3089;48.202;11.510;2023-04-06T09:57:07;10.00;99.90
6118;DHT22;3089;48.202;11.510;2023-04-06T09:59:44;10.10;99.90
6118;DHT22;3089;48.202;11.510;2023-04-06T10:02:25;9.80;99.90
6118;DHT22;3089;48.202;11.510;2023-04-06T10:05:00;10.30;99.90
6118;DHT22;3089;48.202;11.510;2023-04-06T10:07:30;10.10;99.90
6118;DHT22;3089;48.202;11.510;2023-04-06T10:09:59;9.70;99.90
6118;DHT22;3089;48.202;11.510;2023-04-06T10:12:30;9.70;99.90
6118;DHT22;3089;48.202;11.510;2023-04-06T10:14:58;9.30;99.90
6118;DHT22;3089;48.202;11.510;2023-04-06T10:17:26;9.90;99.90
6118;DHT22;3089;48.202;11.510;2023-04-06T10:20:01;9.30;99.90
6118;DHT22;3089;48.202;11.510;2023-04-06T10:22:42;9.60;99.90
6118;DHT22;3089;48.202;11.510;2023-04-06T10:25:12;9.80;99.90
6118;DHT22;3089;48.202;11.510;2023-04-06T10:27:41;9.80;99.90
6118;DHT22;3089;48.202;11.510;2023-04-06T10:30:09;9.80;99.90
6118;DHT22;3089;48.202;11.510;2023-04-06T10:32:38;9.50;99.90
6118;DHT22;3089;48.202;11.510;2023-04-06T10:35:08;10.40;99.90
6118;DHT22;3089;48.202;11.510;2023-04-06T10:37:53;10.60;99.90
6118;DHT22;3089;48.202;11.510;2023-04-06T10:40:25;9.60;99.90
6118;DHT22;3089;48.202;11.510;2023-04-06T10:42:55;10.20;99.90
6118;DHT22;3089;48.202;11.510;2023-04-06T10:45:25;10.60;99.90
6118;DHT22;3089;48.202;11.510;2023-04-06T10:47:54;10.30;99.90
6118;DHT22;3089;48.202;11.510;2023-04-06T10:50:23;10.60;99.90
6118;DHT22;3089;48.202;11.510;2023-04-06T10:53:01;10.90;99.90
6118;DHT22;3089;48.202;11.510;2023-04-06T10:55:29;11.20;99.90
6118;DHT22;3089;48.202;11.510;2023-04-06T10:57:59;10.50;99.90
6118;DHT22;3089;48.202;11.510;2023-04-06T11:00:27;10.40;99.90
6118;DHT22;3089;48.202;11.510;2023-04-06T11:03:15;10.50;99.90
6118;DHT22;3089;48.202;11.510;2023-04-06T11:05:44;10.40;99.90
6118;DHT22;3089;48.202;11.510;2023-04-06T11:08:22;9.80;99.90
6118;DHT22;3089;48.202;11.510;2023-04-06T11:10:51;10.10;99.90
6118;DHT22;3089;48.202;11.510;2023-04-06T11:13:20;9.70;99.90
6118;DHT22;3089;48.202;11.510;2023-04-06T11:15:48;9.30;99.90
6118;DHT22;3089;48.202;11.510;2023-04-06T11:18:17;9.50;99.90
6118;DHT22;3089;48.202;11.510;2023-04-06T11:20:47;9.60;99.90
6118;DHT22;3089;48.202;11.510;2023-04-06T11:23:22;9.40;99.90
6118;DHT22;3089;48.202;11.510;2023-04-06T11:25:51;9.70;99.90
6118;DHT22;3089;48.202;11.510;2023-04-06T11:28:21;10.20;99.90
6118;DHT22;3089;48.202;11.510;2023-04-06T11:30:49;10.70;99.90
6118;DHT22;3089;48.202;11.510;2023-04-06T11:33:22;10.50;99.90
6118;DHT22;3089;48.202;11.510;2023-04-06T11:35:51;10.00;99.90
6118;DHT22;3089;48.202;11.510;2023-04-06T11:38:19;11.20;99.90
6118;DHT22;3089;48.202;11.510;2023-04-06T11:40:52;11.80;99.20
6118;DHT22;3089;48.202;11.510;2023-04-06T11:43:27;12.10;96.20
6118;DHT22;3089;48.202;11.510;2023-04-06T11:46:02;12.00;95.20
6118;DHT22;3089;48.202;11.510;2023-04-06T11:48:30;12.20;98.70
6118;DHT22;3089;48.202;11.510;2023-04-06T11:50:59;12.40;97.90
6118;DHT22;3089;48.202;11.510;2023-04-06T11:53:28;12.20;96.80
6118;DHT22;3089;48.202;11.510;2023-04-06T11:55:56;11.80;92.30
6118;DHT22;3089;48.202;11.510;2023-04-06T11:58:27;12.20;98.30
6118;DHT22;3089;48.202;11.510;2023-04-06T12:01:03;11.80;94.40
6118;DHT22;3089;48.202;11.510;2023-04-06T12:03:31;11.50;95.70
6118;DHT22;3089;48.202;11.510;2023-04-06T12:05:59;11.30;95.50
6118;DHT22;3089;48.202;11.510;2023-04-06T12:08:27;11.50;97.20
6118;DHT22;3089;48.202;11.510;2023-04-06T12:10:55;12.20;98.10
6118;DHT22;3089;48.202;11.510;2023-04-06T12:13:23;12.40;98.00
6118;DHT22;3089;48.202;11.510;2023-04-06T12:15:52;12.40;98.10
6118;DHT22;3089;48.202;11.510;2023-04-06T12:18:21;12.60;98.20
6118;DHT22;3089;48.202;11.510;2023-04-06T12:20:51;12.70;98.00
6118;DHT22;3089;48.202;11.510;2023-04-06T12:23:21;12.70;96.10
6118;DHT22;3089;48.202;11.510;2023-04-06T12:25:49;12.70;97.10
6118;DHT22;3089;48.202;11.510;2023-04-06T12:28:18;12.80;96.90
6118;DHT22;3089;48.202;11.510;2023-04-06T12:30:47;12.70;99.50
6118;DHT22;3089;48.202;11.510;2023-04-06T12:33:16;12.80;99.90
6118;DHT22;3089;48.202;11.510;2023-04-06T12:35:44;12.80;99.00
6118;DHT22;3089;48.202;11.510;2023-04-06T12:38:12;12.00;98.20
6118;DHT22;3089;48.202;11.510;2023-04-06T12:40:40;11.50;98.40
6118;DHT22;3089;48.202;11.510;2023-04-06T12:43:08;11.00;98.80
6118;DHT22;3089;48.202;11.510;2023-04-06T12:45:36;10.70;99.90
6118;DHT22;3089;48.202;11.510;2023-04-06T12:48:04;10.40;96.40
6118;DHT22;3089;48.202;11.510;2023-04-06T12:50:33;10.60;99.90
6118;DHT22;3089;48.202;11.510;2023-04-06T12:53:01;10.80;99.90
6118;DHT22;3089;48.202;11.510;2023-04-06T12:55:30;11.20;97.40
6118;DHT22;3089;48.202;11.510;2023-04-06T12:58:00;11.60;99.90
6118;DHT22;3089;48.202;11.510;2023-04-06T13:00:28;11.80;99.10
6118;DHT22;3089;48.202;11.510;2023-04-06T13:02:57;11.30;99.20
6118;DHT22;3089;48.202;11.510;2023-04-06T13:05:25;11.20;97.90
6118;DHT22;3089;48.202;11.510;2023-04-06T13:07:57;10.90;98.70
6118;DHT22;3089;48.202;11.510;2023-04-06T13:10:26;11.10;99.90
6118;DHT22;3089;48.202;11.510;2023-04-06T13:12:54;11.00;99.90
6118;DHT22;3089;48.202;11.510;2023-04-06T13:15:22;11.40;99.90
6118;DHT22;3089;48.202;11.510;2023-04-06T13:17:50;11.50;99.90
6118;DHT22;3089;48.202;11.510;2023-04-06T13:20:20;11.00;99.90
6118;DHT22;3089;48.202;11.510;2023-04-06T13:22:48;10.50;99.90
6118;DHT22;3089;48.202;11.510;2023-04-06T13:25:17;10.50;99.90
6118;DHT22;3089;48.202;11.510;2023-04-06T13:27:46;11.10;99.90
6118;DHT22;3089;48.202;11.510;2023-04-06T13:30:15;11.30;99.90
6118;DHT22;3089;48.202;11.510;2023-04-06T13:32:43;11.10;99.90
6118;DHT22;3089;48.202;11.510;2023-04-06T13:35:11;11.10;99.90
6118;DHT22;3089;48.202;11.510;2023-04-06T13:37:39;11.40;99.90
6118;DHT22;3089;48.202;11.510;2023-04-06T13:40:08;11.40;99.90
6118;DHT22;3089;48.202;11.510;2023-04-06T13:42:37;11.20;99.90
6118;DHT22;3089;48.202;11.510;2023-04-06T13:45:08;11.40;99.90
6118;DHT22;3089;48.202;11.510;2023-04-06T13:47:36;11.70;99.90
6118;DHT22;3089;48.202;11.510;2023-04-06T13:50:05;11.60;99.90
6118;DHT22;3089;48.202;11.510;2023-04-06T13:52:33;11.80;99.90
6118;DHT22;3089;48.202;11.510;2023-04-06T13:55:03;12.20;99.90
6118;DHT22;3089;48.202;11.510;2023-04-06T13:57:31;11.60;99.90
6118;DHT22;3089;48.202;11.510;2023-04-06T14:00:00;11.50;99.90
6118;DHT22;3089;48.202;11.510;2023-04-06T14:02:33;11.90;99.90
6118;DHT22;3089;48.202;11.510;2023-04-06T14:05:01;11.50;99.90
6118;DHT22;3089;48.202;11.510;2023-04-06T14:07:29;11.70;99.90
6118;DHT22;3089;48.202;11.510;2023-04-06T14:10:06;12.10;99.90
6118;DHT22;3089;48.202;11.510;2023-04-06T14:12:40;12.70;99.90
6118;DHT22;3089;48.202;11.510;2023-04-06T14:15:11;12.60;99.90
6118;DHT22;3089;48.202;11.510;2023-04-06T14:17:39;12.30;99.90
6118;DHT22;3089;48.202;11.510;2023-04-06T14:20:07;12.00;99.90
6118;DHT22;3089;48.202;11.510;2023-04-06T14:22:40;11.70;99.90
6118;DHT22;3089;48.202;11.510;2023-04-06T14:25:09;11.50;99.90
6118;DHT22;3089;48.202;11.510;2023-04-06T14:27:37;11.50;99.90
6118;DHT22;3089;48.202;11.510;2023-04-06T14:30:06;11.60;99.90
6118;DHT22;3089;48.202;11.510;2023-04-06T14:32:36;12.10;99.90
6118;DHT22;3089;48.202;11.510;2023-04-06T14:35:04;11.90;99.90
6118;DHT22;3089;48.202;11.510;2023-04-06T14:37:33;12.20;99.90
6118;DHT22;3089;48.202;11.510;2023-04-06T14:40:01;12.00;99.90
6118;DHT22;3089;48.202;11.510;2023-04-06T14:42:29;11.80;99.90
6118;DHT22;3089;48.202;11.510;2023-04-06T14:44:58;11.60;99.90
6118;DHT22;3089;48.202;11.510;2023-04-06T14:47:25;11.10;99.90
6118;DHT22;3089;48.202;11.510;2023-04-06T14:49:55;11.00;99.90
6118;DHT22;3089;48.202;11.510;2023-04-06T14:52:24;11.20;99.90
6118;DHT22;3089;48.202;11.510;2023-04-06T14:54:52;11.40;99.90
6118;DHT22;3089;48.202;11.510;2023-04-06T14:57:19;11.10;99.90
6118;DHT22;3089;48.202;11.510;2023-04-06T14:59:47;11.50;99.90
6118;DHT22;3089;48.202;11.510;2023-04-06T15:02:15;11.50;99.90
6118;DHT22;3089;48.202;11.510;2023-04-06T15:04:43;11.20;99.90
6118;DHT22;3089;48.202;11.510;2023-04-06T15:07:13;11.60;99.90
6118;DHT22;3089;48.202;11.510;2023-04-06T15:09:41;11.60;99.90
6118;DHT22;3089;48.202;11.510;2023-04-06T15:12:09;11.60;99.90
6118;DHT22;3089;48.202;11.510;2023-04-06T15:14:37;11.20;99.90
6118;DHT22;3089;48.202;11.510;2023-04-06T15:17:04;11.00;99.90
6118;DHT22;3089;48.202;11.510;2023-04-06T15:19:32;11.10;99.90
6118;DHT22;3089;48.202;11.510;2023-04-06T15:22:00;11.10;99.90
6118;DHT22;3089;48.202;11.510;2023-04-06T15:24:29;11.10;99.90
6118;DHT22;3089;48.202;11.510;2023-04-06T15:26:57;10.90;99.90
6118;DHT22;3089;48.202;11.510;2023-04-06T15:29:25;10.60;99.90
6118;DHT22;3089;48.202;11.510;2023-04-06T15:31:53;10.40;99.90
6118;DHT22;3089;48.202;11.510;2023-04-06T15:34:21;10.60;99.90
6118;DHT22;3089;48.202;11.510;2023-04-06T15:36:49;10.90;99.90
6118;DHT22;3089;48.202;11.510;2023-04-06T15:39:17;10.80;99.90
6118;DHT22;3089;48.202;11.510;2023-04-06T15:41:47;10.80;99.90
6118;DHT22;3089;48.202;11.510;2023-04-06T15:44:15;10.80;99.90
6118;DHT22;3089;48.202;11.510;2023-04-06T15:46:43;10.60;99.90
6118;DHT22;3089;48.202;11.510;2023-04-06T15:49:11;10.60;99.90
6118;DHT22;3089;48.202;11.510;2023-04-06T15:51:39;10.70;99.90
6118;DHT22;3089;48.202;11.510;2023-04-06T15:54:08;10.80;99.90
6118;DHT22;3089;48.202;11.510;2023-04-06T15:56:36;10.80;99.90
6118;DHT22;3089;48.202;11.510;2023-04-06T15:59:05;10.70;99.90
6118;DHT22;3089;48.202;11.510;2023-04-06T16:01:33;10.60;99.90
6118;DHT22;3089;48.202;11.510;2023-04-06T16:04:01;10.30;99.90
6118;DHT22;3089;48.202;11.510;2023-04-06T16:06:29;10.40;99.90